Welch, Texas
Current Conditions -  °F | °C
As of 2:55 PM on Tuesday 27 Jan 2015 (Local Time) from KGNC Reporting Station
Clear Clear  
Wind Chill: 71°   Ceiling: Unl
Heat Index: 71°   Visibility: 10mi
Dew Point: 30°   Wind: 3mph
Humidity: 22%   Direction: 200°SSW
Pressure: 30.2"   Gusts: NA
Location:  32.93°N, 102.13°W
Report Text: KGNC 272055Z AUTO 20003KT 10SM CLR 22/M01 A3020 RMK AO2 T02191009
Loading
Personal Weather Stations






























Interactive Weather Map New forecast layout! Learn more

10-Day Weather Forecast

Advertisements
Track Severe Weather on mobile